Time;durP1;ratioP1;P1;durP2;ratioP2;P2;SDS_P1;SDS_P2;PMS_P1;PMS_P2;Temp;Humidity;BMP_temperature;BMP_pressure;BME280_temperature;BME280_humidity;BME280_pressure;Samples;Min_cycle;Max_cycle;Signal;HPM_P1;HPM_P2
2024/04/02 00:04:35;;;;;;;0.60;0.60;;;;;;;7.80;64.05;98721.53;10417751;28;20107;-61
2024/04/02 00:09:36;;;;;;;0.63;0.63;;;;;;;7.82;63.94;98717.06;10434572;28;20044;-61
2024/04/02 00:14:37;;;;;;;1.45;0.68;;;;;;;7.79;64.00;98726.84;10416499;28;20402;-61
2024/04/02 00:19:38;;;;;;;0.50;0.50;;;;;;;7.72;64.20;98728.19;10433498;28;20082;-62
2024/04/02 00:24:39;;;;;;;0.70;0.70;;;;;;;7.76;64.09;98742.66;10417207;28;20389;-63
2024/04/02 00:29:44;;;;;;;2.17;0.70;;;;;;;7.77;64.11;98755.56;10416967;28;20056;-62
2024/04/02 00:34:45;;;;;;;0.30;0.30;;;;;;;7.79;63.90;98758.88;10417010;28;20417;-62
2024/04/02 00:39:47;;;;;;;1.73;0.75;;;;;;;7.80;63.87;98768.38;10417009;28;20345;-62
2024/04/02 00:44:48;;;;;;;1.38;0.63;;;;;;;7.83;63.66;98769.94;10432236;28;20060;-63
2024/04/02 00:49:49;;;;;;;0.60;0.60;;;;;;;7.79;63.76;98776.28;10433290;28;20536;-62
2024/04/02 00:54:51;;;;;;;0.93;0.57;;;;;;;7.87;63.40;98787.88;10432355;28;20045;-62
2024/04/02 00:59:52;;;;;;;0.77;0.70;;;;;;;7.81;63.49;98783.03;10416383;28;20052;-62
2024/04/02 01:04:54;;;;;;;0.32;0.32;;;;;;;7.78;63.69;98787.63;10414920;28;20576;-62
2024/04/02 01:09:55;;;;;;;1.45;0.60;;;;;;;7.87;63.32;98793.06;10432294;28;20048;-62
2024/04/02 01:14:56;;;;;;;1.15;0.75;;;;;;;7.83;63.33;98786.38;10431005;28;20523;-63
2024/04/02 01:19:57;;;;;;;3.10;0.77;;;;;;;7.75;63.63;98791.25;10431894;28;20413;-61
2024/04/02 01:24:59;;;;;;;1.25;0.65;;;;;;;7.90;63.16;98792.00;10431179;28;20971;-62
2024/04/02 01:30:00;;;;;;;0.50;0.50;;;;;;;7.83;63.15;98790.78;10431339;28;20095;-62
2024/04/02 01:35:01;;;;;;;0.73;0.70;;;;;;;7.83;63.05;98802.00;10431318;28;20187;-62
2024/04/02 01:40:03;;;;;;;2.50;0.73;;;;;;;7.77;63.02;98815.41;10431026;28;20072;-62
2024/04/02 01:45:05;;;;;;;0.50;0.50;;;;;;;7.77;63.10;98809.41;10431310;28;20128;-62
2024/04/02 01:50:06;;;;;;;1.20;0.80;;;;;;;7.77;63.09;98823.22;10397592;28;20043;-62
2024/04/02 01:55:07;;;;;;;1.90;0.70;;;;;;;7.82;63.05;98825.53;10429755;28;20067;-62
2024/04/02 02:00:08;;;;;;;0.68;0.63;;;;;;;7.82;62.89;98843.75;10431319;28;20286;-62
2024/04/02 02:05:10;;;;;;;0.68;0.68;;;;;;;7.76;63.27;98845.00;10462975;28;20043;-62
2024/04/02 02:10:13;;;;;;;0.70;0.60;;;;;;;7.76;62.99;98850.19;10406856;28;20047;-62
2024/04/02 02:15:14;;;;;;;0.50;0.50;;;;;;;7.90;62.82;98850.13;10430222;28;20057;-62
2024/04/02 02:20:15;;;;;;;0.95;0.65;;;;;;;7.77;63.07;98857.06;10430780;28;20065;-62
2024/04/02 02:25:17;;;;;;;2.85;0.85;;;;;;;7.87;62.79;98852.09;10430428;28;20049;-62
2024/04/02 02:30:18;;;;;;;1.08;0.70;;;;;;;7.84;62.97;98866.16;10430977;28;20041;-62
2024/04/02 02:35:19;;;;;;;0.70;0.70;;;;;;;7.96;62.77;98870.53;10430704;28;20044;-62
2024/04/02 02:40:20;;;;;;;3.28;0.82;;;;;;;8.09;62.62;98874.94;10437577;28;20393;-62
2024/04/02 02:45:21;;;;;;;0.63;0.50;;;;;;;8.25;62.18;98888.66;10437289;28;20198;-62
2024/04/02 02:50:22;;;;;;;1.17;0.68;;;;;;;8.27;61.96;98894.59;10421792;28;20103;-62
2024/04/02 02:55:23;;;;;;;0.88;0.55;;;;;;;8.42;61.89;98886.59;10420162;28;20041;-62
2024/04/02 03:00:24;;;;;;;0.50;0.50;;;;;;;8.54;61.46;98903.16;10436867;28;20068;-62
2024/04/02 03:05:25;;;;;;;1.13;0.70;;;;;;;8.60;61.47;98900.16;10436596;28;20258;-62
2024/04/02 03:10:26;;;;;;;1.42;0.73;;;;;;;8.61;61.09;98901.78;10421040;28;20137;-63
2024/04/02 03:15:27;;;;;;;0.30;0.30;;;;;;;8.68;60.91;98906.50;10419429;28;20370;-62
2024/04/02 03:20:28;;;;;;;0.63;0.63;;;;;;;8.76;60.98;98908.59;10420073;28;20087;-61
2024/04/02 03:25:28;;;;;;;1.17;0.70;;;;;;;8.70;60.66;98903.78;10420207;28;20091;-62
2024/04/02 03:30:29;;;;;;;2.13;0.70;;;;;;;8.69;60.23;98910.75;10436379;28;20847;-62
2024/04/02 03:35:35;;;;;;;0.73;0.60;;;;;;;8.89;60.30;98914.63;10436019;28;20484;-62
2024/04/02 03:40:39;;;;;;;0.73;0.63;;;;;;;8.80;60.28;98897.00;10419650;28;21037;-62
2024/04/02 03:45:41;;;;;;;1.10;0.70;;;;;;;8.77;60.32;98900.66;10418565;28;20067;-62
2024/04/02 03:50:49;;;;;;;1.10;0.77;;;;;;;8.98;60.07;98890.50;10434421;28;20041;-62
2024/04/02 03:56:16;;;;;;;3.60;0.70;;;;;;;8.91;59.91;98897.13;10433468;28;20041;-62
2024/04/02 04:01:17;;;;;;;1.67;0.60;;;;;;;8.88;60.14;98897.31;10431147;28;20368;-62
2024/04/02 04:06:19;;;;;;;1.02;0.52;;;;;;;8.81;60.31;98906.50;10434821;28;20386;-62
2024/04/02 04:11:20;;;;;;;0.73;0.57;;;;;;;8.77;60.43;98905.88;10434581;28;20033;-62
2024/04/02 04:16:21;;;;;;;2.17;0.60;;;;;;;8.84;60.52;98912.34;10411043;28;20516;-62
2024/04/02 04:21:21;;;;;;;0.70;0.45;;;;;;;8.82;60.41;98915.97;10434367;28;20088;-62
2024/04/02 04:26:22;;;;;;;0.90;0.65;;;;;;;8.88;60.45;98912.94;10433538;28;20097;-62
2024/04/02 04:31:23;;;;;;;3.55;1.70;;;;;;;8.92;60.28;98922.22;10433144;28;20107;-62
2024/04/02 04:36:24;;;;;;;3.38;1.33;;;;;;;8.90;60.32;98918.91;10433148;28;20136;-62
2024/04/02 04:41:25;;;;;;;3.25;0.80;;;;;;;8.97;60.39;98929.75;10432178;28;20574;-62
2024/04/02 04:46:27;;;;;;;1.00;0.90;;;;;;;8.95;60.41;98934.22;10416579;28;20037;-62
2024/04/02 04:51:27;;;;;;;0.85;0.50;;;;;;;9.01;60.38;98949.47;10410931;28;20045;-61
2024/04/02 04:56:28;;;;;;;0.75;0.57;;;;;;;8.97;60.39;98954.06;10415650;28;20072;-62
2024/04/02 05:01:29;;;;;;;0.40;0.40;;;;;;;8.94;60.60;98951.63;10393613;28;20428;-62
2024/04/02 05:06:32;;;;;;;2.10;0.60;;;;;;;9.13;60.28;98962.50;10448031;28;20067;-62
2024/04/02 05:11:33;;;;;;;0.50;0.50;;;;;;;9.19;60.21;98969.91;10399721;28;20120;-62
2024/04/02 05:16:34;;;;;;;0.47;0.47;;;;;;;9.03;60.52;98974.50;10431273;28;20052;-62
2024/04/02 05:21:35;;;;;;;0.85;0.40;;;;;;;9.05;60.45;98985.66;10431647;28;20049;-62
2024/04/02 05:26:36;;;;;;;1.05;0.70;;;;;;;9.15;60.35;98986.69;10415033;28;20552;-62
2024/04/02 05:31:37;;;;;;;0.93;0.65;;;;;;;9.26;60.15;98985.97;10431214;28;20477;-62
2024/04/02 05:36:38;;;;;;;1.85;0.50;;;;;;;9.35;59.93;99001.81;10431977;28;20409;-62
2024/04/02 05:41:39;;;;;;;0.85;0.57;;;;;;;9.36;59.96;99003.47;10430647;28;20224;-62
2024/04/02 05:46:41;;;;;;;1.48;0.88;;;;;;;9.39;59.93;99012.84;10431303;28;20045;-62
2024/04/02 05:51:42;;;;;;;0.52;0.52;;;;;;;9.46;59.84;99017.53;10430542;28;20045;-62
2024/04/02 05:56:42;;;;;;;0.30;0.30;;;;;;;9.32;59.94;99016.84;10431230;28;20049;-62
2024/04/02 06:01:44;;;;;;;0.55;0.40;;;;;;;9.35;59.88;99024.44;10414078;28;20052;-62
2024/04/02 06:06:48;;;;;;;3.15;0.98;;;;;;;9.43;59.28;99024.75;10431234;28;20037;-62
2024/04/02 06:11:49;;;;;;;1.52;0.60;;;;;;;9.48;59.58;99028.69;10433780;28;20566;-62
2024/04/02 06:16:50;;;;;;;2.00;0.50;;;;;;;9.56;59.36;99036.81;10422390;28;20551;-62
2024/04/02 06:21:51;;;;;;;0.35;0.35;;;;;;;9.50;59.15;99057.31;10438443;28;20082;-62
2024/04/02 06:26:52;;;;;;;1.00;0.60;;;;;;;9.52;59.03;99047.63;10438523;28;20076;-61
2024/04/02 06:31:54;;;;;;;0.82;0.60;;;;;;;9.71;58.88;99047.19;10421854;28;20049;-61
2024/04/02 06:36:55;;;;;;;1.63;0.60;;;;;;;9.59;58.96;99044.47;10437892;28;20037;-62
2024/04/02 06:41:56;;;;;;;0.70;0.57;;;;;;;9.79;58.75;99044.88;10436479;28;20045;-61
2024/04/02 06:46:57;;;;;;;1.02;0.65;;;;;;;9.61;58.76;99045.19;10437933;28;20640;-61
2024/04/02 06:51:57;;;;;;;1.58;0.63;;;;;;;9.75;58.49;99043.44;10437667;28;20045;-61
2024/04/02 06:56:58;;;;;;;1.67;0.50;;;;;;;9.58;58.36;99045.38;10420737;28;20053;-61
2024/04/02 07:02:00;;;;;;;1.30;0.70;;;;;;;9.84;58.36;99055.81;10437223;28;20048;-61
2024/04/02 07:07:00;;;;;;;2.05;0.75;;;;;;;9.92;58.29;99064.78;10436260;28;20501;-62
2024/04/02 07:12:02;;;;;;;1.60;0.60;;;;;;;9.95;57.80;99063.75;10431391;28;20344;-61
2024/04/02 07:17:03;;;;;;;1.70;1.00;;;;;;;10.03;57.55;99069.28;10415445;28;20048;-62
2024/04/02 07:22:04;;;;;;;7.03;1.20;;;;;;;10.08;56.94;99074.97;10431051;28;20049;-62
2024/04/02 07:27:06;;;;;;;2.28;1.05;;;;;;;10.15;56.85;99077.06;10431982;28;20515;-62
2024/04/02 07:32:07;;;;;;;1.48;0.90;;;;;;;10.46;56.64;99078.31;10431368;28;20805;-63
2024/04/02 07:37:08;;;;;;;2.15;1.45;;;;;;;10.88;55.07;99080.38;10431498;28;20052;-62
2024/04/02 07:42:09;;;;;;;2.08;1.10;;;;;;;11.16;55.04;99087.84;10413158;28;20045;-61
2024/04/02 07:47:10;;;;;;;2.67;0.93;;;;;;;11.61;52.83;99098.38;10414726;28;20489;-62
2024/04/02 07:52:11;;;;;;;1.13;0.80;;;;;;;11.94;51.67;99094.00;10430858;28;20037;-62
2024/04/02 07:57:12;;;;;;;2.92;1.00;;;;;;;12.67;51.64;99098.63;10430411;28;20053;-62
2024/04/02 08:02:13;;;;;;;3.63;1.67;;;;;;;12.24;50.11;99098.59;10413771;28;20053;-62
2024/04/02 08:07:17;;;;;;;4.32;0.98;;;;;;;12.29;50.57;99101.72;10430442;28;20037;-63
2024/04/02 08:12:18;;;;;;;3.85;1.10;;;;;;;11.80;50.87;99116.97;10429009;28;20564;-62
2024/04/02 08:17:19;;;;;;;3.95;1.13;;;;;;;11.81;50.61;99131.72;10430458;28;20091;-62
2024/04/02 08:22:20;;;;;;;4.50;0.90;;;;;;;12.03;51.05;99142.22;10415412;28;20049;-62
2024/04/02 08:27:21;;;;;;;3.78;0.95;;;;;;;12.76;48.68;99132.81;10428893;28;20041;-62
2024/04/02 08:32:23;;;;;;;3.38;0.98;;;;;;;12.42;48.90;99133.88;10445549;28;20041;-63
2024/04/02 08:37:25;;;;;;;5.95;1.48;;;;;;;12.45;49.20;99153.78;10428218;28;20071;-62
2024/04/02 08:42:26;;;;;;;2.70;1.30;;;;;;;12.01;48.42;99154.59;10429556;28;20059;-62
2024/04/02 08:47:28;;;;;;;3.83;1.00;;;;;;;12.18;48.76;99159.38;10412713;28;20041;-63
2024/04/02 08:52:29;;;;;;;2.80;1.40;;;;;;;12.53;48.24;99161.84;10461043;28;20531;-62
2024/04/02 08:57:32;;;;;;;5.75;1.20;;;;;;;12.75;48.27;99157.41;10411642;28;20059;-63
2024/04/02 09:02:34;;;;;;;2.83;1.02;;;;;;;13.20;48.07;99163.31;10428601;28;20098;-60
2024/04/02 09:07:35;;;;;;;3.30;1.27;;;;;;;13.41;47.05;99161.50;10403366;28;20052;-60
2024/04/02 09:12:38;;;;;;;5.05;1.30;;;;;;;13.55;45.12;99169.13;10423403;28;20406;-61
2024/04/02 09:17:39;;;;;;;6.15;1.70;;;;;;;13.44;46.56;99170.97;10408673;28;20055;-60
2024/04/02 09:22:40;;;;;;;2.28;1.20;;;;;;;13.26;44.63;99172.47;10406356;28;20052;-60
2024/04/02 09:27:41;;;;;;;6.63;2.03;;;;;;;12.99;45.83;99170.31;10422585;28;20493;-60
2024/04/02 09:32:42;;;;;;;1.95;0.93;;;;;;;12.88;46.69;99170.38;10423096;28;20052;-60
2024/04/02 09:37:49;;;;;;;1.60;0.93;;;;;;;12.69;45.21;99192.00;10421920;28;20036;-60
2024/04/02 09:42:50;;;;;;;3.88;1.35;;;;;;;12.81;46.04;99188.38;10421189;28;20049;-60
2024/04/02 09:47:52;;;;;;;3.47;1.13;;;;;;;13.02;46.58;99188.44;10406221;28;20602;-60
2024/04/02 09:52:56;;;;;;;3.45;1.52;;;;;;;13.43;44.88;99192.94;10406405;28;20373;-60
2024/04/02 09:57:58;;;;;;;2.10;0.90;;;;;;;13.12;46.02;99201.66;10423118;28;20110;-60
2024/04/02 10:03:02;;;;;;;2.20;1.05;;;;;;;12.88;44.94;99191.34;10419635;28;20556;-60
2024/04/02 10:08:07;;;;;;;5.18;1.00;;;;;;;13.54;45.39;99188.47;10423892;28;20136;-61
2024/04/02 10:13:08;;;;;;;0.65;0.57;;;;;;;13.78;44.07;99196.06;10406378;28;20139;-60
2024/04/02 10:18:09;;;;;;;1.40;0.80;;;;;;;13.98;44.53;99184.72;10404712;28;20044;-60
2024/04/02 10:23:11;;;;;;;2.08;0.98;;;;;;;13.98;43.92;99189.13;10407380;28;20048;-60
2024/04/02 10:28:12;;;;;;;2.78;1.05;;;;;;;13.15;44.00;99196.16;10421879;28;20512;-61
2024/04/02 10:33:21;;;;;;;1.55;0.88;;;;;;;13.63;43.54;99194.75;10423619;28;20045;-59
2024/04/02 10:38:22;;;;;;;1.83;0.77;;;;;;;13.84;44.65;99195.56;10423161;28;20056;-60
2024/04/02 10:43:23;;;;;;;0.55;0.52;;;;;;;13.82;44.92;99188.78;10409834;28;20164;-60
2024/04/02 10:48:24;;;;;;;1.73;0.55;;;;;;;14.20;44.31;99197.69;10424957;28;20056;-60
2024/04/02 10:53:24;;;;;;;1.08;0.63;;;;;;;14.14;44.38;99203.47;10425779;28;20041;-61
2024/04/02 10:58:27;;;;;;;2.10;0.60;;;;;;;13.89;45.48;99201.25;10428823;28;20516;-62
2024/04/02 11:03:28;;;;;;;2.40;0.68;;;;;;;13.54;47.05;99212.09;10433179;28;20978;-61
2024/04/02 11:08:29;;;;;;;4.47;1.27;;;;;;;13.56;47.09;99218.06;10426876;28;20040;-61
2024/04/02 11:13:33;;;;;;;1.27;0.70;;;;;;;13.83;46.44;99191.28;10428620;28;20190;-61
2024/04/02 11:18:34;;;;;;;0.40;0.40;;;;;;;13.86;46.43;99196.25;10414937;28;20692;-60
2024/04/02 11:29:05;;;;;;;1.63;0.70;;;;;;;13.74;45.90;99182.38;10433635;28;20094;-60
2024/04/02 11:34:06;;;;;;;0.85;0.45;;;;;;;13.34;46.10;99196.28;10431666;28;20110;-60
2024/04/02 11:39:07;;;;;;;2.45;0.68;;;;;;;13.21;46.26;99200.91;10411879;28;20091;-61
2024/04/02 11:44:08;;;;;;;1.15;0.47;;;;;;;13.03;46.06;99202.41;10431061;28;20064;-60
2024/04/02 11:49:09;;;;;;;0.55;0.50;;;;;;;13.34;46.21;99205.00;10429877;28;20056;-60
2024/04/02 11:54:11;;;;;;;1.65;0.65;;;;;;;13.33;45.58;99229.59;10415927;28;20049;-61
2024/04/02 12:04:36;;;;;;;1.13;0.82;;;;;;;13.27;45.78;99235.34;10429054;28;20625;-60
2024/04/02 12:09:38;;;;;;;2.67;0.63;;;;;;;13.20;45.47;99234.19;10426465;28;20787;-60
2024/04/02 12:14:40;;;;;;;1.45;0.82;;;;;;;13.61;45.95;99225.56;10427489;28;20512;-60
2024/04/02 12:19:41;;;;;;;0.52;0.43;;;;;;;14.18;45.13;99207.50;10430678;28;20056;-61
2024/04/02 12:24:42;;;;;;;1.08;0.50;;;;;;;14.33;44.90;99202.72;10429647;28;20041;-60
2024/04/02 12:29:43;;;;;;;1.35;0.55;;;;;;;14.19;44.08;99195.16;10413261;28;20049;-60
2024/04/02 12:34:47;;;;;;;1.70;0.65;;;;;;;14.57;44.11;99204.06;10461197;28;20295;-60
2024/04/02 12:39:49;;;;;;;2.13;0.88;;;;;;;14.26;44.78;99212.94;10413722;28;20136;-60
2024/04/02 12:44:53;;;;;;;2.20;0.60;;;;;;;14.26;44.28;99226.09;10415056;28;20045;-61
2024/04/02 12:49:54;;;;;;;2.28;0.60;;;;;;;14.01;45.17;99233.56;10433077;28;20079;-60
2024/04/02 12:54:55;;;;;;;1.17;0.60;;;;;;;14.55;44.72;99234.94;10432070;28;20496;-60
2024/04/02 12:59:56;;;;;;;1.35;0.70;;;;;;;14.64;44.01;99232.47;10415616;28;20092;-60
2024/04/02 13:04:57;;;;;;;2.17;0.85;;;;;;;14.64;44.45;99225.41;10415537;28;20049;-60
2024/04/02 13:10:01;;;;;;;2.20;0.80;;;;;;;15.27;42.84;99216.22;10432224;28;20068;-60
2024/04/02 13:15:04;;;;;;;2.55;0.80;;;;;;;15.08;42.99;99218.88;10431117;28;20523;-59
2024/04/02 13:20:05;;;;;;;4.50;1.05;;;;;;;15.17;42.29;99212.75;10431245;28;20029;-60
2024/04/02 13:25:06;;;;;;;2.08;0.80;;;;;;;14.96;44.00;99222.59;10414374;28;20049;-60
2024/04/02 13:30:07;;;;;;;3.70;0.88;;;;;;;14.38;46.08;99211.88;10414882;28;20106;-60
2024/04/02 13:35:08;;;;;;;3.78;0.95;;;;;;;14.20;46.12;99231.88;10414743;28;20578;-60
2024/04/02 13:40:10;;;;;;;2.28;0.98;;;;;;;14.65;45.21;99227.09;10398539;28;20045;-60
2024/04/02 13:45:11;;;;;;;3.47;1.35;;;;;;;14.52;45.20;99223.84;10430185;28;20134;-60
2024/04/02 13:50:12;;;;;;;2.65;1.17;;;;;;;14.39;45.21;99213.53;10414511;28;20059;-60
2024/04/02 13:55:13;;;;;;;4.28;1.00;;;;;;;15.09;44.33;99195.03;10410584;28;20624;-60
2024/04/02 14:00:15;;;;;;;2.33;1.00;;;;;;;15.49;43.32;99210.69;10425964;28;20043;-60
2024/04/02 14:05:16;;;;;;;1.55;0.90;;;;;;;15.58;42.71;99201.97;10426945;28;20052;-60
2024/04/02 14:10:17;;;;;;;2.55;1.05;;;;;;;15.23;42.84;99193.78;10392518;28;20047;-60
2024/04/02 14:15:18;;;;;;;1.40;0.73;;;;;;;15.02;43.37;99203.63;10393244;28;20053;-60
2024/04/02 14:20:19;;;;;;;5.47;2.35;;;;;;;14.99;42.78;99188.06;10425333;28;20511;-60
2024/04/02 14:25:20;;;;;;;4.07;1.15;;;;;;;15.15;42.66;99181.31;10425921;28;20095;-60
2024/04/02 14:30:21;;;;;;;3.63;1.10;;;;;;;15.03;41.77;99171.88;10423858;28;20033;-60
2024/04/02 14:35:22;;;;;;;2.20;1.00;;;;;;;15.01;42.04;99178.25;10433570;28;20041;-60
2024/04/02 14:40:23;;;;;;;2.28;0.90;;;;;;;14.93;41.68;99180.72;10433365;28;20120;-60
2024/04/02 14:45:24;;;;;;;4.18;1.10;;;;;;;14.73;41.02;99181.66;10433391;28;20041;-61
2024/04/02 14:50:26;;;;;;;1.13;0.88;;;;;;;14.71;41.49;99176.56;10416875;28;20049;-61
2024/04/02 14:55:27;;;;;;;2.20;0.82;;;;;;;14.83;40.91;99166.72;10400357;28;20075;-60
2024/04/02 15:00:28;;;;;;;1.25;0.85;;;;;;;15.19;38.26;99176.59;10432506;28;20052;-60
2024/04/02 15:05:29;;;;;;;1.17;0.90;;;;;;;15.29;39.14;99162.44;10417090;28;20044;-61
2024/04/02 15:10:30;;;;;;;1.42;0.82;;;;;;;15.13;39.31;99159.53;10425520;28;20352;-60
2024/04/02 15:15:31;;;;;;;2.72;0.80;;;;;;;14.88;39.29;99152.16;10430016;28;20063;-61
2024/04/02 15:20:33;;;;;;;2.88;0.82;;;;;;;15.12;38.26;99151.78;10429614;28;20064;-60
2024/04/02 15:25:34;;;;;;;2.10;1.08;;;;;;;14.84;39.18;99147.34;10414212;28;20045;-60
2024/04/02 15:30:35;;;;;;;1.42;0.70;;;;;;;14.45;39.66;99134.06;10412507;28;20045;-60
2024/04/02 15:35:36;;;;;;;3.70;1.08;;;;;;;14.48;39.99;99133.81;10412111;28;20052;-60
2024/04/02 15:40:37;;;;;;;3.42;1.20;;;;;;;14.03;40.61;99143.06;10429785;28;20131;-60
2024/04/02 15:45:38;;;;;;;8.65;1.50;;;;;;;13.85;41.00;99147.28;10429850;28;20037;-60
2024/04/02 15:50:38;;;;;;;4.72;1.33;;;;;;;14.52;40.51;99143.13;10414770;28;20041;-61
2024/04/02 15:55:39;;;;;;;5.47;0.77;;;;;;;14.39;39.52;99145.13;10429932;28;20053;-60
2024/04/02 16:00:40;;;;;;;3.95;1.05;;;;;;;14.37;40.50;99147.06;10429947;28;20041;-60
2024/04/02 16:05:41;;;;;;;2.03;0.68;;;;;;;14.33;39.83;99153.56;10430186;28;20772;-60
2024/04/02 16:10:42;;;;;;;3.35;1.20;;;;;;;14.61;40.01;99157.28;10428724;28;20048;-60
2024/04/02 16:15:43;;;;;;;2.72;1.00;;;;;;;14.72;40.33;99166.84;10428986;28;20095;-60
2024/04/02 16:20:44;;;;;;;4.43;1.48;;;;;;;14.39;40.12;99171.44;10429577;28;20048;-60
2024/04/02 16:25:52;;;;;;;2.67;1.00;;;;;;;14.08;39.57;99175.09;10428060;28;20533;-60
2024/04/02 16:30:53;;;;;;;1.48;0.70;;;;;;;14.27;40.68;99171.66;10462002;28;20045;-60
2024/04/02 16:35:55;;;;;;;5.40;1.10;;;;;;;13.97;41.06;99175.16;10412349;28;20075;-60
2024/04/02 16:40:55;;;;;;;5.57;1.30;;;;;;;13.89;41.27;99177.59;10394457;28;20045;-60
2024/04/02 16:45:57;;;;;;;4.20;1.10;;;;;;;13.85;41.77;99184.09;10428336;28;20037;-60
2024/04/02 16:50:58;;;;;;;4.93;1.10;;;;;;;13.82;41.47;99180.91;10428667;28;20055;-60
2024/04/02 16:56:04;;;;;;;1.67;0.93;;;;;;;13.72;41.46;99191.31;10427285;28;20052;-60
2024/04/02 17:01:06;;;;;;;4.38;0.95;;;;;;;13.72;41.51;99180.81;10445917;28;20048;-60
2024/04/02 17:06:08;;;;;;;9.30;2.30;;;;;;;13.72;41.87;99180.81;10426390;28;20041;-60
2024/04/02 17:11:12;;;;;;;1.42;0.80;;;;;;;13.61;41.71;99180.91;10412433;28;20347;-60
2024/04/02 17:16:13;;;;;;;3.50;1.25;;;;;;;13.65;42.13;99179.69;10431324;28;20060;-60
2024/04/02 17:21:16;;;;;;;4.82;0.90;;;;;;;13.54;42.29;99188.47;10431715;28;20099;-60
2024/04/02 17:26:17;;;;;;;5.13;1.50;;;;;;;13.42;42.06;99192.09;10430533;28;20971;-60
2024/04/02 17:31:18;;;;;;;2.35;0.85;;;;;;;13.38;42.46;99203.81;10390379;28;20140;-60
2024/04/02 17:36:20;;;;;;;5.63;1.00;;;;;;;13.30;42.41;99198.34;10427450;28;20044;-60
2024/04/02 17:41:21;;;;;;;3.28;1.05;;;;;;;13.29;42.19;99199.28;10428056;28;20060;-60
2024/04/02 17:46:22;;;;;;;5.57;2.50;;;;;;;13.24;41.99;99205.88;10427652;28;20041;-60
2024/04/02 17:51:23;;;;;;;2.10;1.15;;;;;;;13.19;41.99;99200.19;10427074;28;20049;-60
2024/04/02 17:56:24;;;;;;;2.42;1.10;;;;;;;13.12;41.69;99214.78;10409188;28;20053;-60
2024/04/02 18:01:25;;;;;;;1.80;0.80;;;;;;;13.12;41.72;99212.16;10426799;28;20226;-60
2024/04/02 18:06:34;;;;;;;3.20;1.23;;;;;;;13.07;42.14;99216.94;10410793;28;20044;-60
2024/04/02 18:11:35;;;;;;;4.78;1.08;;;;;;;13.00;41.69;99213.16;10421657;28;20045;-60
2024/04/02 18:16:37;;;;;;;2.67;0.90;;;;;;;13.00;41.97;99223.63;10418788;28;20067;-59
2024/04/02 18:21:40;;;;;;;2.25;1.13;;;;;;;12.96;42.12;99223.06;10433623;28;20029;-60
2024/04/02 18:26:41;;;;;;;2.08;0.90;;;;;;;12.85;41.95;99229.16;10434066;28;20051;-60
2024/04/02 18:31:42;;;;;;;4.35;1.70;;;;;;;12.90;42.11;99240.13;10433083;28;20716;-60
2024/04/02 18:36:43;;;;;;;5.18;1.05;;;;;;;12.74;42.46;99239.66;10416697;28;20068;-60
2024/04/02 18:41:45;;;;;;;2.78;1.25;;;;;;;12.55;42.51;99247.34;10432028;28;20044;-60
2024/04/02 18:46:46;;;;;;;3.97;1.40;;;;;;;12.39;43.09;99243.41;10434779;28;20106;-60
2024/04/02 18:51:47;;;;;;;4.18;1.15;;;;;;;12.25;43.32;99252.31;10412697;28;20402;-60
2024/04/02 18:56:48;;;;;;;4.18;1.50;;;;;;;12.12;43.48;99256.84;10417067;28;20041;-60
2024/04/02 19:01:49;;;;;;;8.10;1.67;;;;;;;11.96;43.93;99265.03;10415189;28;20087;-60
2024/04/02 19:06:51;;;;;;;2.55;1.08;;;;;;;11.83;44.37;99260.81;10431146;28;20124;-60
2024/04/02 19:11:54;;;;;;;2.15;0.88;;;;;;;12.01;44.12;99257.66;10431623;28;20045;-60
2024/04/02 19:16:56;;;;;;;5.95;1.92;;;;;;;12.12;44.35;99256.84;10409850;28;20262;-60
2024/04/02 19:21:58;;;;;;;1.63;0.98;;;;;;;12.27;44.31;99250.41;10418127;28;20044;-61
2024/04/02 19:26:59;;;;;;;2.63;0.70;;;;;;;12.33;44.56;99249.97;10433121;28;20121;-60
2024/04/02 19:32:01;;;;;;;1.95;1.05;;;;;;;12.39;44.88;99264.41;10431017;28;20049;-60
2024/04/02 19:37:02;;;;;;;1.23;0.70;;;;;;;12.21;45.11;99258.75;10430761;28;20049;-61
2024/04/02 19:42:03;;;;;;;1.40;0.82;;;;;;;12.01;45.34;99254.19;10430103;28;20044;-61
2024/04/02 19:47:04;;;;;;;5.40;1.20;;;;;;;11.85;45.65;99261.53;10430629;28;20560;-60
2024/04/02 19:52:06;;;;;;;5.47;1.48;;;;;;;11.55;46.38;99266.47;10424914;28;20037;-60
2024/04/02 19:57:07;;;;;;;2.63;0.80;;;;;;;11.41;47.32;99267.50;10430788;28;20098;-61
2024/04/02 20:02:08;;;;;;;4.38;0.70;;;;;;;11.25;47.89;99266.94;10432867;28;20398;-60
2024/04/02 20:07:09;;;;;;;1.50;0.70;;;;;;;11.17;48.16;99272.72;10430224;28;20433;-60
2024/04/02 20:12:11;;;;;;;1.25;0.50;;;;;;;11.14;48.40;99277.34;10430750;28;20179;-60
2024/04/02 20:17:12;;;;;;;0.77;0.65;;;;;;;11.02;49.23;99279.03;10417047;28;20115;-60
2024/04/02 20:22:14;;;;;;;2.97;0.90;;;;;;;11.00;49.52;99274.84;10417577;28;20041;-60
2024/04/02 20:27:16;;;;;;;0.95;0.47;;;;;;;10.80;50.54;99284.13;10433079;28;20432;-60
2024/04/02 20:32:18;;;;;;;1.42;0.60;;;;;;;10.78;50.46;99293.03;10432142;28;20045;-60
2024/04/02 20:37:21;;;;;;;1.90;0.70;;;;;;;10.75;50.84;99296.69;10432914;28;20053;-60
2024/04/02 20:42:22;;;;;;;2.15;0.90;;;;;;;10.66;51.53;99296.50;10416057;28;20037;-59
2024/04/02 20:47:23;;;;;;;6.57;1.10;;;;;;;10.64;51.37;99299.22;10432845;28;20125;-59
2024/04/02 20:52:26;;;;;;;3.05;0.88;;;;;;;10.52;51.90;99299.25;10431768;28;20048;-59
2024/04/02 20:57:27;;;;;;;5.35;1.45;;;;;;;10.48;52.15;99298.63;10399750;28;20068;-59
2024/04/02 21:02:28;;;;;;;0.40;0.40;;;;;;;10.48;52.27;99303.84;10430454;28;20412;-59
2024/04/02 21:07:30;;;;;;;1.70;0.70;;;;;;;10.46;52.33;99300.50;10431074;28;20044;-59
2024/04/02 21:12:34;;;;;;;1.13;0.63;;;;;;;10.46;52.34;99305.75;10399257;28;20573;-59
2024/04/02 21:17:35;;;;;;;3.30;1.02;;;;;;;10.42;52.60;99299.03;10418901;28;20079;-59
2024/04/02 21:22:37;;;;;;;2.40;0.55;;;;;;;10.35;52.90;99305.63;10397727;28;20278;-59
2024/04/02 21:27:39;;;;;;;1.98;0.80;;;;;;;10.36;53.43;99304.66;10431464;28;20052;-59
2024/04/02 21:32:40;;;;;;;2.00;0.95;;;;;;;10.42;53.02;99299.03;10431324;28;20053;-59
2024/04/02 21:37:44;;;;;;;0.40;0.40;;;;;;;10.32;53.50;99304.06;10430793;28;20465;-59
2024/04/02 21:42:47;;;;;;;0.90;0.45;;;;;;;10.47;53.44;99302.16;10430153;28;20051;-59
2024/04/02 21:47:59;;;;;;;3.22;0.80;;;;;;;10.59;53.98;99290.84;10431273;28;20041;-59
2024/04/02 21:53:00;;;;;;;0.70;0.40;;;;;;;10.71;53.54;99295.22;10413530;28;20311;-59
2024/04/02 21:58:01;;;;;;;1.42;0.77;;;;;;;10.83;53.42;99294.34;10430565;28;20033;-59
2024/04/02 22:03:02;;;;;;;2.42;0.80;;;;;;;10.88;53.19;99287.03;10413953;28;20478;-59
2024/04/02 22:08:07;;;;;;;0.60;0.52;;;;;;;10.83;53.77;99281.28;10414161;28;20127;-59
2024/04/02 22:13:08;;;;;;;2.03;0.73;;;;;;;10.81;53.99;99287.56;10413786;28;20057;-59
2024/04/02 22:18:09;;;;;;;0.43;0.40;;;;;;;10.86;54.04;99278.47;10430637;28;20049;-60
2024/04/02 22:23:10;;;;;;;0.32;0.32;;;;;;;10.91;54.38;99283.38;10430104;28;20134;-59
2024/04/02 22:28:12;;;;;;;0.65;0.63;;;;;;;10.99;54.05;99284.47;10429882;28;20060;-59
2024/04/02 22:33:13;;;;;;;1.70;0.80;;;;;;;11.04;54.24;99287.63;10430651;28;20045;-59
2024/04/02 22:38:14;;;;;;;2.17;0.63;;;;;;;11.06;54.16;99283.13;10430407;28;20049;-59
2024/04/02 22:43:15;;;;;;;1.90;0.68;;;;;;;11.11;54.12;99285.44;10414091;28;20501;-59
2024/04/02 22:48:16;;;;;;;1.00;0.63;;;;;;;11.28;54.16;99288.47;10413642;28;20049;-59
2024/04/02 22:53:17;;;;;;;1.50;0.57;;;;;;;11.26;54.06;99293.00;10431865;28;20116;-59
2024/04/02 22:58:18;;;;;;;0.73;0.47;;;;;;;11.29;53.99;99284.91;10429375;28;20079;-60
2024/04/02 23:03:19;;;;;;;1.33;0.57;;;;;;;11.30;54.00;99289.22;10418873;28;20430;-59
2024/04/02 23:08:39;;;;;;;1.05;0.60;;;;;;;11.33;54.15;99282.91;10436555;28;20083;-59
2024/04/02 23:13:41;;;;;;;1.13;0.60;;;;;;;11.39;54.00;99284.25;10435449;28;20056;-59
2024/04/02 23:18:42;;;;;;;0.85;0.55;;;;;;;11.38;54.06;99282.59;10419403;28;20063;-59
2024/04/02 23:23:43;;;;;;;0.95;0.47;;;;;;;11.38;54.21;99282.59;10413074;28;20052;-59
2024/04/02 23:28:44;;;;;;;2.63;0.50;;;;;;;11.33;54.37;99269.84;10433797;28;20142;-59
2024/04/02 23:33:45;;;;;;;0.50;0.47;;;;;;;11.33;54.53;99269.84;10431773;28;20045;-59
2024/04/02 23:38:46;;;;;;;2.30;0.88;;;;;;;11.30;54.79;99273.50;10434349;28;20064;-59